createdAt,value
2018-08-02T00:01:21.292Z,93.50
2018-08-02T00:03:51.414Z,93.00
2018-08-02T00:06:21.223Z,92.40
2018-08-02T00:08:51.106Z,92.80
2018-08-02T00:11:21.162Z,93.00
2018-08-02T00:13:50.988Z,94.10
2018-08-02T00:16:20.931Z,95.20
2018-08-02T00:18:50.678Z,96.00
2018-08-02T00:21:20.623Z,96.40
2018-08-02T00:23:50.652Z,95.10
2018-08-02T00:26:20.742Z,94.00
2018-08-02T00:28:50.525Z,93.20
2018-08-02T00:31:20.760Z,93.10
2018-08-02T00:33:50.667Z,93.80
2018-08-02T00:36:20.656Z,94.80
2018-08-02T00:38:50.635Z,94.90
2018-08-02T00:41:20.574Z,94.60
2018-08-02T00:43:50.431Z,93.60
2018-08-02T00:46:20.260Z,93.60
2018-08-02T00:48:50.188Z,93.60
2018-08-02T00:51:20.329Z,94.10
2018-08-02T00:53:50.221Z,95.20
2018-08-02T00:56:20.006Z,96.00
2018-08-02T00:58:50.086Z,96.30
2018-08-02T01:01:20.363Z,97.00
2018-08-02T01:03:50.302Z,96.40
2018-08-02T01:06:20.257Z,95.50
2018-08-02T01:08:50.218Z,95.60
2018-08-02T01:11:20.180Z,96.20
2018-08-02T01:13:49.988Z,96.60
2018-08-02T01:16:19.810Z,96.30
2018-08-02T01:18:49.855Z,95.40
2018-08-02T01:21:19.847Z,95.80
2018-08-02T01:23:49.854Z,95.50
2018-08-02T01:26:19.766Z,95.80
2018-08-02T01:28:49.874Z,96.30
2018-08-02T01:31:19.860Z,96.80
2018-08-02T01:33:49.625Z,97.30
2018-08-02T01:36:19.690Z,96.80
2018-08-02T01:38:49.598Z,96.10
2018-08-02T01:41:19.378Z,96.60
2018-08-02T01:43:49.219Z,97.00
2018-08-02T01:46:18.966Z,96.80
2018-08-02T01:48:48.898Z,97.40
2018-08-02T01:51:18.895Z,97.70
2018-08-02T01:54:01.284Z,97.20
2018-08-02T01:56:31.029Z,97.30
2018-08-02T01:59:00.890Z,97.20
2018-08-02T02:01:30.768Z,97.60
2018-08-02T02:04:00.726Z,97.30
2018-08-02T02:06:30.616Z,96.70
2018-08-02T02:09:00.695Z,96.80
2018-08-02T02:11:30.728Z,96.20
2018-08-02T02:14:00.543Z,96.50
2018-08-02T02:16:30.569Z,96.90
2018-08-02T02:19:00.441Z,96.80
2018-08-02T02:21:30.637Z,95.90
2018-08-02T02:24:01.038Z,96.50
2018-08-02T02:26:31.007Z,96.90
2018-08-02T02:29:00.965Z,97.50
2018-08-02T02:31:30.894Z,98.40
2018-08-02T02:34:00.695Z,98.50
2018-08-02T02:36:30.595Z,98.60
2018-08-02T02:39:00.515Z,99.40
2018-08-02T02:41:30.493Z,99.90
2018-08-02T02:44:00.404Z,99.90
2018-08-02T02:46:30.190Z,99.90
2018-08-02T02:49:00.083Z,99.90
2018-08-02T02:51:30.179Z,99.90
2018-08-02T02:54:00.173Z,98.90
2018-08-02T02:56:30.021Z,98.30
2018-08-02T02:59:00.044Z,99.10
2018-08-02T03:01:30.017Z,99.40
2018-08-02T03:03:59.879Z,99.90
2018-08-02T03:06:29.970Z,99.90
2018-08-02T03:09:00.785Z,99.90
2018-08-02T03:11:30.643Z,99.90
2018-08-02T03:14:00.971Z,99.90
2018-08-02T03:16:30.756Z,99.10
2018-08-02T03:19:00.699Z,98.40
2018-08-02T03:21:30.584Z,97.80
2018-08-02T03:24:00.536Z,97.30
2018-08-02T03:26:30.440Z,97.00
2018-08-02T03:29:01.445Z,97.60
2018-08-02T03:31:31.311Z,97.60
2018-08-02T03:34:01.315Z,98.30
2018-08-02T03:36:31.047Z,97.70
2018-08-02T03:39:01.005Z,98.50
2018-08-02T03:41:30.875Z,99.50
2018-08-02T03:44:00.974Z,99.90
2018-08-02T03:46:30.952Z,99.90
2018-08-02T03:49:00.843Z,99.90
2018-08-02T03:51:30.808Z,99.70
2018-08-02T03:54:00.845Z,98.70
2018-08-02T03:56:31.679Z,99.80
2018-08-02T03:59:01.693Z,99.90
2018-08-02T04:01:31.678Z,99.40
2018-08-02T04:04:01.699Z,99.60
2018-08-02T04:06:31.702Z,99.90
2018-08-02T04:09:01.701Z,99.90
2018-08-02T04:11:31.666Z,99.90
2018-08-02T04:14:01.801Z,99.90
2018-08-02T04:16:31.563Z,99.90
2018-08-02T04:19:01.574Z,99.90
2018-08-02T04:21:31.537Z,99.90
2018-08-02T04:24:01.443Z,99.90
2018-08-02T04:26:35.725Z,99.90
2018-08-02T04:29:05.553Z,99.30
2018-08-02T04:31:35.311Z,98.80
2018-08-02T04:34:06.093Z,98.10
2018-08-02T04:36:35.886Z,98.90
2018-08-02T04:39:08.896Z,99.90
2018-08-02T04:41:39.142Z,99.90
2018-08-02T04:44:09.311Z,99.90
2018-08-02T04:46:39.140Z,99.90
2018-08-02T04:49:09.313Z,99.50
2018-08-02T04:51:39.587Z,98.80
2018-08-02T04:54:09.691Z,98.30
2018-08-02T04:56:39.980Z,98.00
2018-08-02T04:59:10.124Z,97.90
2018-08-02T05:01:40.446Z,99.00
2018-08-02T05:04:10.246Z,99.70
2018-08-02T05:06:40.464Z,99.90
2018-08-02T05:09:11.500Z,99.90
2018-08-02T05:11:41.483Z,99.90
2018-08-02T05:14:11.477Z,99.90
2018-08-02T05:16:42.141Z,99.90
2018-08-02T05:19:11.947Z,99.60
2018-08-02T05:21:42.100Z,99.10
2018-08-02T05:24:11.901Z,99.50
2018-08-02T05:26:42.103Z,99.80
2018-08-02T05:29:12.007Z,98.90
2018-08-02T05:31:42.145Z,98.40
2018-08-02T05:34:12.302Z,98.10
2018-08-02T05:36:42.549Z,98.10
2018-08-02T05:39:12.709Z,97.90
2018-08-02T05:41:42.895Z,97.90
2018-08-02T05:44:15.712Z,98.70
2018-08-02T05:46:45.975Z,98.70
2018-08-02T05:49:16.176Z,98.40
2018-08-02T05:51:45.998Z,98.30
2018-08-02T05:54:15.899Z,98.20
2018-08-02T05:56:45.791Z,97.70
2018-08-02T05:59:15.959Z,97.60
2018-08-02T06:01:46.238Z,97.30
2018-08-02T06:04:16.378Z,97.70
2018-08-02T06:06:46.266Z,97.70
2018-08-02T06:09:16.122Z,98.10
2018-08-02T06:11:46.119Z,97.80
2018-08-02T06:14:16.075Z,98.70
2018-08-02T06:16:46.052Z,97.60
2018-08-02T06:19:16.016Z,97.50
2018-08-02T06:21:45.994Z,97.60
2018-08-02T06:24:15.986Z,97.90
2018-08-02T06:26:45.910Z,98.20
2018-08-02T06:29:15.866Z,97.30
2018-08-02T06:31:45.694Z,96.80
2018-08-02T06:34:15.432Z,96.70
2018-08-02T06:36:45.671Z,97.60
2018-08-02T06:39:15.790Z,97.50
2018-08-02T06:41:45.873Z,98.90
2018-08-02T06:44:15.884Z,98.70
2018-08-02T06:46:45.915Z,99.30
2018-08-02T06:49:15.856Z,99.30
2018-08-02T06:51:45.915Z,99.30
2018-08-02T06:54:16.014Z,98.20
2018-08-02T06:56:46.038Z,98.60
2018-08-02T06:59:16.023Z,97.30
2018-08-02T07:01:46.414Z,97.50
2018-08-02T07:04:16.475Z,99.30
2018-08-02T07:06:52.007Z,99.80
2018-08-02T07:09:23.589Z,99.50
2018-08-02T07:11:55.352Z,98.90
2018-08-02T07:14:25.752Z,99.60
2018-08-02T07:16:55.537Z,99.30
2018-08-02T07:19:25.850Z,99.10
2018-08-02T07:21:55.790Z,99.10
2018-08-02T07:24:25.738Z,98.70
2018-08-02T07:26:55.806Z,98.60
2018-08-02T07:29:25.821Z,98.20
2018-08-02T07:31:56.509Z,98.60
2018-08-02T07:34:26.566Z,98.40
2018-08-02T07:36:56.500Z,98.00
2018-08-02T07:39:26.453Z,98.40
2018-08-02T07:41:56.390Z,98.00
2018-08-02T07:44:26.490Z,98.10
2018-08-02T07:46:56.497Z,98.20
2018-08-02T07:49:26.378Z,97.30
2018-08-02T07:51:56.293Z,97.30
2018-08-02T07:54:26.200Z,97.40
2018-08-02T07:56:56.066Z,97.90
2018-08-02T07:59:26.101Z,97.00
2018-08-02T08:01:55.860Z,96.80
2018-08-02T08:04:25.799Z,96.30
2018-08-02T08:06:55.874Z,96.20
2018-08-02T08:09:25.874Z,96.30
2018-08-02T08:11:55.625Z,96.00
2018-08-02T08:14:25.436Z,96.30
2018-08-02T08:16:55.702Z,96.10
2018-08-02T08:19:25.469Z,95.50
2018-08-02T08:21:55.378Z,95.70
2018-08-02T08:24:25.234Z,95.40
2018-08-02T08:26:55.019Z,94.80
2018-08-02T08:29:24.828Z,94.30
2018-08-02T08:31:55.083Z,93.90
2018-08-02T08:34:24.896Z,93.90
2018-08-02T08:36:54.958Z,94.00
2018-08-02T08:39:24.702Z,93.90
2018-08-02T08:41:54.530Z,93.40
2018-08-02T08:44:24.791Z,93.40
2018-08-02T08:46:54.719Z,93.00
2018-08-02T08:49:57.153Z,93.30
2018-08-02T08:52:26.944Z,92.80
2018-08-02T08:54:57.020Z,93.00
2018-08-02T08:57:27.090Z,91.90
2018-08-02T08:59:57.107Z,91.70
2018-08-02T09:02:27.214Z,91.40
2018-08-02T09:04:56.962Z,91.30
2018-08-02T09:07:27.004Z,91.00
2018-08-02T09:09:56.940Z,91.30
2018-08-02T09:12:27.031Z,90.40
2018-08-02T09:14:56.755Z,90.10
2018-08-02T09:17:26.788Z,89.20
2018-08-02T09:19:56.815Z,89.10
2018-08-02T09:22:26.749Z,88.70
2018-08-02T09:24:56.845Z,88.50
2018-08-02T09:27:26.874Z,88.60
2018-08-02T09:29:56.692Z,88.60
2018-08-02T09:32:26.513Z,87.80
2018-08-02T09:34:56.529Z,87.50
2018-08-02T09:37:26.658Z,87.00
2018-08-02T09:39:56.371Z,86.30
2018-08-02T09:42:26.357Z,85.00
2018-08-02T09:44:56.382Z,85.30
2018-08-02T09:47:27.690Z,84.90
2018-08-02T09:49:57.716Z,84.90
2018-08-02T09:52:27.643Z,84.50
2018-08-02T09:54:57.711Z,82.60
2018-08-02T09:57:27.927Z,83.90
2018-08-02T09:59:57.942Z,83.00
2018-08-02T10:02:28.337Z,82.50
2018-08-02T10:04:58.295Z,82.40
2018-08-02T10:07:28.106Z,82.30
2018-08-02T10:09:58.019Z,81.40
2018-08-02T10:12:27.916Z,80.70
2018-08-02T10:14:58.027Z,81.30
2018-08-02T10:17:28.441Z,79.80
2018-08-02T10:19:58.586Z,79.20
2018-08-02T10:22:28.359Z,78.90
2018-08-02T10:24:58.737Z,79.20
2018-08-02T10:27:28.666Z,78.90
2018-08-02T10:29:59.384Z,79.80
2018-08-02T10:32:29.310Z,79.80
2018-08-02T10:34:59.511Z,78.50
2018-08-02T10:37:29.595Z,77.60
2018-08-02T10:39:59.790Z,78.80
2018-08-02T10:42:29.594Z,75.60
2018-08-02T10:44:59.704Z,75.50
2018-08-02T10:47:29.835Z,75.50
2018-08-02T10:49:59.904Z,76.10
2018-08-02T10:52:30.364Z,74.50
2018-08-02T10:55:01.040Z,75.90
2018-08-02T10:57:30.414Z,74.30
2018-08-02T11:00:00.254Z,74.70
2018-08-02T11:02:30.389Z,75.00
2018-08-02T11:05:00.170Z,75.20
2018-08-02T11:07:29.955Z,73.90
2018-08-02T11:09:59.805Z,74.10
2018-08-02T11:12:30.053Z,72.30
2018-08-02T11:14:59.810Z,71.30
2018-08-02T11:17:29.761Z,72.40
2018-08-02T11:19:59.803Z,70.00
2018-08-02T11:22:29.578Z,68.70
2018-08-02T11:24:59.708Z,70.20
2018-08-02T11:27:29.561Z,69.80
2018-08-02T11:29:59.647Z,69.80
2018-08-02T11:32:29.850Z,69.60
2018-08-02T11:34:59.990Z,69.50
2018-08-02T11:37:30.093Z,69.50
2018-08-02T11:40:00.155Z,69.60
2018-08-02T11:42:31.087Z,69.40
2018-08-02T11:45:01.330Z,67.80
2018-08-02T11:47:31.364Z,70.00
2018-08-02T11:50:02.610Z,67.50
2018-08-02T11:52:32.454Z,68.60
2018-08-02T11:55:02.226Z,66.80
2018-08-02T11:57:32.118Z,67.60
2018-08-02T12:00:01.999Z,67.30
2018-08-02T12:02:32.176Z,66.30
2018-08-02T12:05:01.984Z,66.70
2018-08-02T12:07:32.015Z,66.90
2018-08-02T12:10:01.896Z,65.80
2018-08-02T12:12:32.054Z,65.90
2018-08-02T12:15:02.043Z,65.70
2018-08-02T12:17:32.287Z,65.00
2018-08-02T12:20:02.266Z,65.00
2018-08-02T12:22:32.046Z,64.70
2018-08-02T12:25:02.031Z,63.90
2018-08-02T12:27:31.831Z,64.90
2018-08-02T12:30:01.806Z,64.20
2018-08-02T12:32:31.718Z,63.10
2018-08-02T12:35:01.889Z,62.90
2018-08-02T12:37:31.880Z,62.60
2018-08-02T12:40:01.948Z,63.40
2018-08-02T12:42:32.151Z,63.70
2018-08-02T12:45:02.286Z,63.10
2018-08-02T12:47:32.243Z,61.70
2018-08-02T12:50:12.084Z,62.00
2018-08-02T12:52:41.887Z,61.20
2018-08-02T12:55:12.140Z,60.30
2018-08-02T12:57:42.580Z,61.80
2018-08-02T13:00:12.722Z,60.90
2018-08-02T13:02:42.840Z,60.80
2018-08-02T13:05:13.902Z,60.40
2018-08-02T13:07:43.867Z,58.80
2018-08-02T13:10:13.634Z,60.10
2018-08-02T13:12:43.519Z,60.50
2018-08-02T13:15:13.615Z,59.70
2018-08-02T13:17:43.561Z,59.80
2018-08-02T13:20:13.326Z,60.00
2018-08-02T13:22:43.415Z,59.40
2018-08-02T13:25:13.394Z,57.30
2018-08-02T13:27:43.386Z,58.80
2018-08-02T13:30:13.667Z,59.20
2018-08-02T13:32:46.393Z,57.40
2018-08-02T13:35:17.876Z,58.20
2018-08-02T13:37:49.259Z,56.80
2018-08-02T13:40:19.124Z,58.60
2018-08-02T13:42:49.167Z,56.40
2018-08-02T13:45:19.794Z,56.70
2018-08-02T13:47:49.760Z,57.40
2018-08-02T13:50:20.103Z,56.70
2018-08-02T13:52:57.431Z,57.30
2018-08-02T13:55:27.669Z,56.70
2018-08-02T13:57:59.994Z,56.60
2018-08-02T14:00:31.139Z,56.80
2018-08-02T14:03:01.255Z,56.60
2018-08-02T14:05:31.336Z,55.40
2018-08-02T14:08:01.789Z,56.50
2018-08-02T14:10:31.646Z,56.60
2018-08-02T14:13:11.196Z,56.00
2018-08-02T14:15:46.551Z,56.40
2018-08-02T14:18:23.973Z,55.40
2018-08-02T14:20:53.834Z,55.80
2018-08-02T14:23:47.220Z,54.90
2018-08-02T14:26:17.355Z,55.50
2018-08-02T14:28:56.826Z,55.40
2018-08-02T14:31:37.265Z,54.70
2018-08-02T14:34:07.420Z,56.30
2018-08-02T14:36:59.013Z,55.20
2018-08-02T14:42:36.986Z,54.70
2018-08-02T14:45:08.201Z,54.50
2018-08-02T14:47:38.038Z,55.80
2018-08-02T14:50:08.475Z,54.70
2018-08-02T14:52:40.300Z,54.30
2018-08-02T14:55:10.529Z,55.20
2018-08-02T14:57:40.411Z,55.40
2018-08-02T15:00:10.237Z,54.90
2018-08-02T15:02:40.580Z,55.10
2018-08-02T15:05:10.595Z,54.90
2018-08-02T15:07:40.886Z,53.90
2018-08-02T15:10:11.006Z,55.70
2018-08-02T15:12:40.907Z,55.50
2018-08-02T15:15:11.043Z,53.90
2018-08-02T15:17:41.261Z,54.00
2018-08-02T15:20:10.962Z,53.40
2018-08-02T15:23:09.442Z,53.70
2018-08-02T15:25:40.223Z,54.70
2018-08-02T15:28:10.285Z,53.70
2018-08-02T15:30:40.353Z,52.60
2018-08-02T15:33:11.006Z,53.70
2018-08-02T15:35:41.370Z,53.30
2018-08-02T15:38:11.592Z,53.20
2018-08-02T15:40:41.743Z,53.80
2018-08-02T15:43:15.770Z,52.70
2018-08-02T15:45:45.938Z,54.00
2018-08-02T15:48:16.147Z,53.20
2018-08-02T15:50:46.025Z,52.20
2018-08-02T15:53:16.147Z,53.90
2018-08-02T15:55:55.253Z,53.20
2018-08-02T15:58:30.718Z,52.40
2018-08-02T16:01:00.914Z,52.40
2018-08-02T16:03:31.330Z,53.00
2018-08-02T16:06:03.665Z,52.20
2018-08-02T16:08:33.560Z,53.00
2018-08-02T16:11:03.739Z,52.70
2018-08-02T16:13:33.929Z,52.00
2018-08-02T16:16:32.900Z,51.70
2018-08-02T16:19:02.854Z,52.30
2018-08-02T16:21:33.390Z,51.90
2018-08-02T16:24:03.306Z,51.50
2018-08-02T16:26:33.660Z,51.30
2018-08-02T16:29:03.741Z,52.90
2018-08-02T16:31:34.142Z,52.10
2018-08-02T16:34:04.565Z,52.90
2018-08-02T16:36:52.193Z,52.40
2018-08-02T16:39:46.096Z,53.10
2018-08-02T16:42:16.179Z,53.10
2018-08-02T16:44:46.927Z,52.90
2018-08-02T16:47:17.332Z,52.20
2018-08-02T16:49:47.807Z,52.10
2018-08-02T16:55:27.804Z,52.80
2018-08-02T16:58:05.495Z,53.20
2018-08-02T17:03:46.503Z,53.60
2018-08-02T17:06:16.293Z,52.60
2018-08-02T17:08:46.489Z,53.70
2018-08-02T17:11:16.466Z,53.20
2018-08-02T17:13:46.326Z,53.60
2018-08-02T17:16:16.500Z,52.70
2018-08-02T17:18:46.604Z,53.30
2018-08-02T17:21:16.678Z,53.70
2018-08-02T17:23:46.635Z,53.50
2018-08-02T17:26:39.359Z,54.60
2018-08-02T17:29:09.236Z,54.00
2018-08-02T17:31:39.538Z,54.20
2018-08-02T17:34:09.913Z,54.50
2018-08-02T17:36:39.852Z,55.10
2018-08-02T17:39:13.297Z,53.50
2018-08-02T17:45:21.514Z,56.20
2018-08-02T17:47:51.701Z,55.10
2018-08-02T17:50:21.574Z,55.70
2018-08-02T17:52:52.358Z,56.70
2018-08-02T17:55:22.446Z,56.30
2018-08-02T17:57:53.520Z,55.90
2018-08-02T18:00:23.820Z,56.00
2018-08-02T18:03:24.368Z,56.30
2018-08-02T18:05:54.986Z,56.80
2018-08-02T18:08:25.208Z,56.70
2018-08-02T18:10:55.248Z,57.80
2018-08-02T18:13:25.632Z,58.70
2018-08-02T18:15:56.048Z,59.00
2018-08-02T18:18:37.140Z,59.10
2018-08-02T18:21:07.682Z,58.40
2018-08-02T18:23:45.991Z,58.20
2018-08-02T18:26:16.784Z,59.10
2018-08-02T18:28:46.968Z,58.40
2018-08-02T18:31:23.486Z,58.90
2018-08-02T18:34:18.614Z,59.30
2018-08-02T18:36:58.373Z,59.30
2018-08-02T18:39:28.240Z,59.70
2018-08-02T18:45:08.264Z,60.90
2018-08-02T18:47:38.419Z,61.50
2018-08-02T18:50:08.936Z,62.00
2018-08-02T18:52:45.489Z,61.90
2018-08-02T18:55:15.634Z,62.40
2018-08-02T18:57:45.686Z,63.80
2018-08-02T19:00:15.653Z,64.00
2018-08-02T19:02:46.048Z,64.20
2018-08-02T19:05:16.176Z,63.80
2018-08-02T19:07:46.433Z,64.50
2018-08-02T19:10:16.516Z,65.40
2018-08-02T19:12:47.072Z,65.30
2018-08-02T19:15:17.082Z,65.10
2018-08-02T19:17:46.900Z,66.30
2018-08-02T19:20:17.017Z,66.30
2018-08-02T19:22:47.488Z,67.10
2018-08-02T19:28:27.311Z,67.40
2018-08-02T19:30:57.995Z,67.80
2018-08-02T19:33:28.902Z,68.00
2018-08-02T19:35:59.219Z,67.90
2018-08-02T19:38:30.207Z,69.20
2018-08-02T19:41:00.404Z,69.30
2018-08-02T19:43:30.575Z,68.20
2018-08-02T19:46:02.426Z,68.10
2018-08-02T19:48:32.440Z,68.40
2018-08-02T19:51:03.190Z,69.50
2018-08-02T19:53:33.491Z,68.70
2018-08-02T19:56:03.651Z,69.70
2018-08-02T19:58:33.988Z,70.80
2018-08-02T20:01:04.276Z,70.30
2018-08-02T20:03:34.243Z,69.80
2018-08-02T20:06:04.448Z,69.60
2018-08-02T20:08:34.273Z,69.70
2018-08-02T20:11:04.595Z,69.80
2018-08-02T20:13:34.717Z,69.50
2018-08-02T20:16:04.801Z,71.80
2018-08-02T20:18:34.836Z,71.60
2018-08-02T20:21:05.034Z,71.80
2018-08-02T20:23:34.988Z,71.60
2018-08-02T20:26:06.004Z,72.30
2018-08-02T20:28:38.113Z,73.10
2018-08-02T20:31:08.030Z,73.90
2018-08-02T20:33:38.037Z,73.60
2018-08-02T20:36:08.115Z,73.80
2018-08-02T20:38:38.323Z,74.20
2018-08-02T20:41:08.401Z,74.10
2018-08-02T20:43:42.116Z,73.70
2018-08-02T20:46:12.625Z,73.30
2018-08-02T20:48:42.526Z,72.90
2018-08-02T20:51:12.551Z,73.10
2018-08-02T20:53:42.456Z,72.80
2018-08-02T20:56:13.548Z,74.60
2018-08-02T20:58:43.416Z,75.70
2018-08-02T21:01:13.643Z,77.00
2018-08-02T21:03:43.787Z,78.90
2018-08-02T21:06:13.926Z,79.40
2018-08-02T21:08:43.727Z,79.90
2018-08-02T21:11:13.863Z,80.50
2018-08-02T21:13:43.625Z,79.90
2018-08-02T21:16:16.708Z,78.20
2018-08-02T21:18:47.054Z,76.90
2018-08-02T21:21:17.019Z,76.90
2018-08-02T21:23:47.036Z,77.70
2018-08-02T21:26:16.834Z,78.10
2018-08-02T21:28:46.859Z,79.50
2018-08-02T21:31:16.973Z,80.80
2018-08-02T21:33:46.989Z,82.10
2018-08-02T21:36:16.799Z,82.60
2018-08-02T21:38:46.693Z,80.90
2018-08-02T21:41:16.775Z,81.20
2018-08-02T21:43:46.553Z,80.00
2018-08-02T21:46:16.568Z,80.10
2018-08-02T21:48:46.551Z,81.30
2018-08-02T21:51:16.656Z,81.80
2018-08-02T21:53:46.844Z,82.10
2018-08-02T21:56:20.150Z,82.50
2018-08-02T21:58:50.984Z,81.50
2018-08-02T22:01:20.995Z,80.50
2018-08-02T22:03:51.127Z,79.70
2018-08-02T22:06:21.175Z,80.10
2018-08-02T22:08:51.183Z,81.10
2018-08-02T22:11:26.171Z,81.90
2018-08-02T22:14:00.088Z,81.60
2018-08-02T22:16:30.083Z,82.40
2018-08-02T22:18:59.875Z,85.50
2018-08-02T22:21:29.925Z,85.90
2018-08-02T22:24:00.278Z,84.90
2018-08-02T22:26:30.285Z,86.40
2018-08-02T22:29:00.244Z,88.50
2018-08-02T22:31:30.346Z,90.20
2018-08-02T22:34:00.162Z,90.80
2018-08-02T22:36:30.302Z,91.40
2018-08-02T22:39:00.390Z,90.40
2018-08-02T22:41:30.565Z,87.90
2018-08-02T22:44:00.694Z,86.70
2018-08-02T22:46:30.577Z,88.90
2018-08-02T22:49:00.698Z,90.30
2018-08-02T22:51:30.984Z,90.60
2018-08-02T22:54:01.277Z,90.50
2018-08-02T22:56:31.513Z,89.40
2018-08-02T22:59:01.665Z,89.80
2018-08-02T23:01:31.866Z,90.20
2018-08-02T23:04:01.939Z,89.80
2018-08-02T23:06:31.932Z,89.40
2018-08-02T23:09:02.052Z,90.20
2018-08-02T23:11:32.153Z,90.00
2018-08-02T23:14:02.271Z,89.50
2018-08-02T23:16:32.757Z,89.90
2018-08-02T23:19:02.811Z,89.40
2018-08-02T23:21:32.570Z,90.50
2018-08-02T23:24:02.527Z,91.80
2018-08-02T23:26:32.277Z,93.10
2018-08-02T23:29:02.040Z,93.30
2018-08-02T23:31:32.033Z,93.50
2018-08-02T23:34:02.971Z,92.80
2018-08-02T23:36:33.032Z,92.80
2018-08-02T23:39:03.543Z,93.00
2018-08-02T23:41:33.991Z,92.10
2018-08-02T23:44:21.939Z,91.30
2018-08-02T23:46:51.882Z,91.20
2018-08-02T23:49:22.176Z,92.30
2018-08-02T23:51:52.685Z,93.60
2018-08-02T23:54:22.731Z,94.50
2018-08-02T23:56:53.055Z,94.90
2018-08-02T23:59:23.389Z,95.50
